createdAt,value
2018-03-30T00:02:21.574Z,100350.80
2018-03-30T00:07:22.924Z,100347.58
2018-03-30T00:12:24.289Z,100338.98
2018-03-30T00:17:25.659Z,100339.21
2018-03-30T00:22:27.760Z,100341.52
2018-03-30T00:27:29.886Z,100344.91
2018-03-30T00:32:31.338Z,100345.64
2018-03-30T00:37:32.791Z,100351.69
2018-03-30T00:42:34.159Z,100353.77
2018-03-30T00:47:35.562Z,100349.50
2018-03-30T00:52:36.908Z,100357.49
2018-03-30T00:57:38.822Z,100358.54
2018-03-30T01:02:40.956Z,100350.27
2018-03-30T01:07:42.303Z,100350.61
2018-03-30T01:12:43.673Z,100344.27
2018-03-30T01:17:45.047Z,100328.03
2018-03-30T01:22:46.410Z,100322.38
2018-03-30T01:27:47.798Z,100322.36
2018-03-30T01:32:49.868Z,100316.78
2018-03-30T01:37:51.227Z,100319.63
2018-03-30T01:42:52.569Z,100314.91
2018-03-30T01:47:54.651Z,100313.11
2018-03-30T01:52:55.990Z,100308.44
2018-03-30T01:57:57.330Z,100317.94
2018-03-30T02:02:58.682Z,100306.05
2018-03-30T02:08:00.070Z,100304.23
2018-03-30T02:13:01.498Z,100298.91
2018-03-30T02:18:02.892Z,100297.23
2018-03-30T02:23:04.245Z,100291.14
2018-03-30T02:28:05.744Z,100291.58
2018-03-30T02:33:07.085Z,100287.11
2018-03-30T02:38:08.492Z,100275.61
2018-03-30T02:43:09.897Z,100284.57
2018-03-30T02:48:11.229Z,100275.59
2018-03-30T02:53:12.630Z,100269.49
2018-03-30T02:58:13.996Z,100267.23
2018-03-30T03:03:15.368Z,100255.95
2018-03-30T03:08:16.714Z,100258.57
2018-03-30T03:13:18.066Z,100259.44
2018-03-30T03:18:19.443Z,100248.75
2018-03-30T03:23:20.810Z,100239.69
2018-03-30T03:28:22.171Z,100231.27
2018-03-30T03:33:23.505Z,100230.09
2018-03-30T03:38:24.850Z,100226.16
2018-03-30T03:43:26.409Z,100223.05
2018-03-30T03:48:27.759Z,100220.75
2018-03-30T03:53:29.829Z,100229.73
2018-03-30T03:58:31.223Z,100224.22
2018-03-30T04:03:32.596Z,100228.11
2018-03-30T04:08:34.052Z,100217.91
2018-03-30T04:13:35.444Z,100221.83
2018-03-30T04:18:36.788Z,100223.06
2018-03-30T04:23:38.166Z,100211.70
2018-03-30T04:28:39.577Z,100218.48
2018-03-30T04:33:41.752Z,100208.59
2018-03-30T04:38:44.010Z,100206.28
2018-03-30T04:43:46.548Z,100208.78
2018-03-30T04:48:48.193Z,100216.92
2018-03-30T04:53:50.424Z,100210.69
2018-03-30T04:58:52.260Z,100219.58
2018-03-30T05:03:53.833Z,100212.30
2018-03-30T05:08:56.340Z,100215.09
2018-03-30T05:13:57.670Z,100219.48
2018-03-30T05:18:59.878Z,100221.09
2018-03-30T05:24:01.313Z,100213.47
2018-03-30T05:29:02.843Z,100214.16
2018-03-30T05:34:04.360Z,100215.17
2018-03-30T05:39:05.810Z,100215.69
2018-03-30T05:44:07.218Z,100211.59
2018-03-30T05:49:09.353Z,100213.87
2018-03-30T05:54:10.816Z,100213.64
2018-03-30T05:59:13.768Z,100217.99
2018-03-30T06:04:15.662Z,100190.27
2018-03-30T06:09:17.469Z,100217.33
2018-03-30T06:14:20.054Z,100215.06
2018-03-30T06:19:22.362Z,100216.22
2018-03-30T06:24:24.605Z,100221.81
2018-03-30T06:29:26.596Z,100219.36
2018-03-30T06:34:28.781Z,100207.14
2018-03-30T06:39:31.015Z,100211.67
2018-03-30T06:44:34.931Z,100209.87
2018-03-30T06:49:37.165Z,100208.47
2018-03-30T06:54:38.585Z,100217.50
2018-03-30T06:59:39.961Z,100213.72
2018-03-30T07:04:42.495Z,100216.07
2018-03-30T07:09:43.936Z,100212.52
2018-03-30T07:14:46.298Z,100216.71
2018-03-30T07:19:48.377Z,100206.58
2018-03-30T07:24:51.286Z,100194.97
2018-03-30T07:29:53.946Z,100208.34
2018-03-30T07:34:56.346Z,100211.14
2018-03-30T07:39:58.638Z,100223.59
2018-03-30T07:45:01.614Z,100213.68
2018-03-30T07:50:03.620Z,100212.63
2018-03-30T07:55:05.061Z,100204.95
2018-03-30T08:00:07.947Z,100209.58
2018-03-30T08:05:10.088Z,100199.94
2018-03-30T08:10:11.439Z,100193.30
2018-03-30T08:15:12.840Z,100194.16
2018-03-30T08:20:14.192Z,100191.50
2018-03-30T08:25:16.287Z,100186.19
2018-03-30T08:30:17.635Z,100184.45
2018-03-30T08:35:19.005Z,100185.34
2018-03-30T08:40:20.389Z,100182.08
2018-03-30T08:45:21.724Z,100174.55
2018-03-30T08:50:23.077Z,100179.28
2018-03-30T08:55:24.488Z,100164.12
2018-03-30T09:00:25.892Z,100156.59
2018-03-30T09:05:27.604Z,100153.34
2018-03-30T09:10:30.680Z,100151.92
2018-03-30T09:15:32.909Z,100146.83
2018-03-30T09:20:35.416Z,100148.12
2018-03-30T09:25:37.315Z,100150.60
2018-03-30T09:30:39.781Z,100139.41
2018-03-30T09:35:42.192Z,100142.05
2018-03-30T09:40:44.550Z,100128.00
2018-03-30T09:45:45.992Z,100119.41
2018-03-30T09:50:47.311Z,100123.75
2018-03-30T09:55:49.433Z,100108.95
2018-03-30T10:00:50.789Z,100108.34
2018-03-30T10:05:52.135Z,100108.91
2018-03-30T10:10:53.522Z,100097.38
2018-03-30T10:15:54.949Z,100086.36
2018-03-30T10:20:56.335Z,100085.20
2018-03-30T10:25:57.696Z,100069.52
2018-03-30T10:30:59.485Z,100063.16
2018-03-30T10:36:02.433Z,100053.38
2018-03-30T10:41:03.919Z,100049.27
2018-03-30T10:46:05.239Z,100044.38
2018-03-30T10:51:06.602Z,100030.65
2018-03-30T10:56:07.964Z,100017.66
2018-03-30T11:01:10.076Z,100012.05
2018-03-30T11:06:11.474Z,100008.96
2018-03-30T11:11:12.876Z,99996.73
2018-03-30T11:16:14.242Z,99988.32
2018-03-30T11:21:15.669Z,99979.78
2018-03-30T11:26:17.056Z,99973.45
2018-03-30T11:31:18.490Z,99972.08
2018-03-30T11:36:19.832Z,99968.88
2018-03-30T11:41:23.356Z,99962.21
2018-03-30T11:46:26.497Z,99952.22
2018-03-30T11:51:27.918Z,99931.23
2018-03-30T11:56:29.280Z,99933.08
2018-03-30T12:01:30.637Z,99925.53
2018-03-30T12:06:31.960Z,99917.16
2018-03-30T12:11:33.320Z,99913.09
2018-03-30T12:16:35.384Z,99896.53
2018-03-30T12:21:36.759Z,99886.37
2018-03-30T12:26:38.136Z,99881.32
2018-03-30T12:31:39.518Z,99863.75
2018-03-30T12:36:40.875Z,99848.85
2018-03-30T12:41:42.236Z,99832.53
2018-03-30T12:46:43.599Z,99818.79
2018-03-30T12:51:45.072Z,99797.28
2018-03-30T12:56:47.159Z,99791.27
2018-03-30T13:01:48.516Z,99779.31
2018-03-30T13:06:49.835Z,99769.20
2018-03-30T13:11:51.153Z,99762.54
2018-03-30T13:16:53.225Z,99773.14
2018-03-30T13:21:54.535Z,99767.03
2018-03-30T13:26:56.699Z,99782.02
2018-03-30T13:31:58.332Z,99771.18
2018-03-30T13:37:00.601Z,99773.72
2018-03-30T13:42:02.144Z,99776.41
2018-03-30T13:47:04.342Z,99766.19
2018-03-30T13:52:11.584Z,99750.02
2018-03-30T13:57:39.314Z,99750.64
2018-03-30T14:02:46.285Z,99739.80
2018-03-30T14:13:25.881Z,99742.41
2018-03-30T14:18:35.765Z,99735.78
2018-03-30T14:23:43.531Z,99728.78
2018-03-30T14:29:06.746Z,99747.25
2018-03-30T14:34:21.893Z,99740.66
2018-03-30T14:39:47.796Z,99739.78
2018-03-30T14:44:51.141Z,99736.50
2018-03-30T14:49:57.248Z,99730.47
2018-03-30T14:55:01.395Z,99726.33
2018-03-30T15:00:09.893Z,99710.58
2018-03-30T15:05:37.138Z,99703.19
2018-03-30T15:11:26.794Z,99695.41
2018-03-30T15:16:55.768Z,99683.52
2018-03-30T15:22:10.136Z,99669.73
2018-03-30T15:32:48.798Z,99668.06
2018-03-30T15:37:50.995Z,99654.47
2018-03-30T15:42:59.133Z,99650.47
2018-03-30T15:48:00.533Z,99640.76
2018-03-30T15:53:01.912Z,99649.38
2018-03-30T15:58:03.316Z,99644.17
2018-03-30T16:03:04.697Z,99646.38
2018-03-30T16:08:06.070Z,99651.76
2018-03-30T16:13:07.454Z,99650.97
2018-03-30T16:18:08.832Z,99629.90
2018-03-30T16:23:09.920Z,99629.05
2018-03-30T16:28:11.180Z,99630.84
2018-03-30T16:33:12.984Z,99631.38
2018-03-30T16:38:14.801Z,99640.67
2018-03-30T16:43:15.961Z,99643.89
2018-03-30T16:48:17.819Z,99641.17
2018-03-30T16:53:18.905Z,99644.13
2018-03-30T16:58:20.019Z,99634.47
2018-03-30T17:03:21.204Z,99627.57
2018-03-30T17:08:22.529Z,99634.19
2018-03-30T17:13:23.675Z,99635.86
2018-03-30T17:18:24.775Z,99640.27
2018-03-30T17:23:26.617Z,99652.48
2018-03-30T17:28:27.720Z,99638.60
2018-03-30T17:33:28.868Z,99637.82
2018-03-30T17:38:29.960Z,99644.20
2018-03-30T17:43:31.124Z,99652.04
2018-03-30T17:48:32.242Z,99654.20
2018-03-30T17:53:33.364Z,99660.06
2018-03-30T17:58:34.454Z,99656.55
2018-03-30T18:03:35.532Z,99656.48
2018-03-30T18:08:36.616Z,99661.22
2018-03-30T18:13:37.712Z,99672.31
2018-03-30T18:18:38.798Z,99667.77
2018-03-30T18:23:41.025Z,99675.23
2018-03-30T18:28:42.238Z,99674.22
2018-03-30T18:33:44.011Z,99666.73
2018-03-30T18:38:46.472Z,99663.92
2018-03-30T18:43:47.965Z,99676.11
2018-03-30T18:48:49.121Z,99673.80
2018-03-30T18:53:50.446Z,99680.30
2018-03-30T18:58:51.726Z,99680.91
2018-03-30T19:03:52.852Z,99681.39
2018-03-30T19:08:54.751Z,99669.94
2018-03-30T19:13:57.334Z,99664.52
2018-03-30T19:18:58.515Z,99667.51
2018-03-30T19:23:59.615Z,99660.45
2018-03-30T19:29:00.721Z,99665.00
2018-03-30T19:34:01.842Z,99654.98
2018-03-30T19:39:02.924Z,99643.00
2018-03-30T19:44:04.026Z,99648.95
2018-03-30T19:49:05.130Z,99636.63
2018-03-30T19:54:06.275Z,99647.54
2018-03-30T19:59:07.392Z,99629.09
2018-03-30T20:04:08.500Z,99624.38
2018-03-30T20:09:09.593Z,99626.02
2018-03-30T20:14:10.661Z,99627.47
2018-03-30T20:19:11.857Z,99634.03
2018-03-30T20:24:12.955Z,99625.86
2018-03-30T20:29:14.812Z,99619.28
2018-03-30T20:34:15.891Z,99622.84
2018-03-30T20:39:16.987Z,99609.52
2018-03-30T20:44:18.096Z,99600.68
2018-03-30T20:49:19.183Z,99591.81
2018-03-30T20:54:21.239Z,99587.19
2018-03-30T20:59:22.342Z,99574.22
2018-03-30T21:04:23.448Z,99584.82
2018-03-30T21:09:24.583Z,99577.70
2018-03-30T21:14:25.658Z,99574.47
2018-03-30T21:19:26.797Z,99553.55
2018-03-30T21:24:27.949Z,99553.22
2018-03-30T21:29:29.003Z,99552.67
2018-03-30T21:34:30.087Z,99552.69
2018-03-30T21:39:31.197Z,99550.96
2018-03-30T21:44:32.277Z,99532.16
2018-03-30T21:49:33.871Z,99533.79
2018-03-30T21:54:35.010Z,99535.20
2018-03-30T21:59:36.836Z,99533.88
2018-03-30T22:04:38.876Z,99540.77
2018-03-30T22:09:39.962Z,99544.94
2018-03-30T22:14:41.094Z,99552.35
2018-03-30T22:19:42.189Z,99543.17
2018-03-30T22:24:44.106Z,99550.16
2018-03-30T22:29:45.233Z,99545.12
2018-03-30T22:34:46.340Z,99536.06
2018-03-30T22:39:47.430Z,99529.47
2018-03-30T22:44:48.511Z,99519.76
2018-03-30T22:49:50.350Z,99524.31
2018-03-30T22:54:51.460Z,99511.12
2018-03-30T22:59:52.543Z,99501.14
2018-03-30T23:04:53.629Z,99487.39
2018-03-30T23:09:54.709Z,99493.12
2018-03-30T23:14:55.842Z,99485.17
2018-03-30T23:19:57.664Z,99477.78
2018-03-30T23:24:58.756Z,99467.68
2018-03-30T23:29:59.903Z,99455.91
2018-03-30T23:35:01.000Z,99454.52
2018-03-30T23:40:02.828Z,99440.95
2018-03-30T23:45:03.929Z,99450.59
2018-03-30T23:50:05.028Z,99435.53
2018-03-30T23:55:06.122Z,99450.96
